This is the latest recevied weather packets stored in our database for station/object KF4KUL. If no packets are shown the sender has not sent any weather packets the latest 10 day(s).
| Time | Temp. | Humidity | Pressure | Rain* | Wind** | Luminosity | Snow |
|---|---|---|---|---|---|---|---|
| 1777206829 | 22.78° C | 91% | 1012.1 hPa | 0 mm | - | - | - |
| 1777205928 | 21.67° C | 92% | 1011.9 hPa | 0 mm | - | - | - |
| 1777205027 | 21.67° C | 92% | 1011.7 hPa | 0 mm | - | - | - |
| 1777204126 | 20.56° C | 92% | 1011.7 hPa | 0 mm | - | - | - |
| 1777203225 | 20° C | 92% | 1011.4 hPa | 0 mm | - | - | - |
| 1777202324 | 19.44° C | 92% | 1011 hPa | 0 mm | - | - | - |
| 1777201423 | 20° C | 92% | 1010.9 hPa | 0 mm | - | - | - |
| 1777200522 | 19.44° C | 91% | 1010.7 hPa | 0 mm | - | - | - |
| 1777199621 | 19.44° C | 91% | 1010.7 hPa | 0 mm | - | - | - |
| 1777198720 | 19.44° C | 91% | 1010.6 hPa | 0 mm | - | - | - |
| 1777197819 | 19.44° C | 91% | 1010.6 hPa | 0 mm | - | - | - |
| 1777196918 | 19.44° C | 91% | 1010.5 hPa | 0 mm | - | - | - |
| 1777196017 | 18.89° C | 90% | 1010.3 hPa | 0 mm | - | - | - |
| 1777195116 | 19.44° C | 90% | 1010.1 hPa | 0 mm | - | - | - |
| 1777194215 | 20° C | 90% | 1010.2 hPa | 0 mm | - | - | - |
| 1777193314 | 19.44° C | 90% | 1010.1 hPa | 0 mm | - | - | - |
| 1777192413 | 20° C | 90% | 1010.3 hPa | 0 mm | - | - | - |
| 1777191512 | 20° C | 89% | 1010.3 hPa | 0 mm | - | - | - |
| 1777190611 | 20° C | 89% | 1010.3 hPa | 0 mm | - | - | - |
| 1777189711 | 20° C | 89% | 1010.4 hPa | 0 mm | - | - | - |
| 1777188809 | 20.56° C | 88% | 1010.4 hPa | 0 mm | - | - | - |
| 1777187908 | 20.56° C | 88% | 1010.3 hPa | 0 mm | - | - | - |
| 1777187007 | 20.56° C | 88% | 1010.3 hPa | 0 mm | - | - | - |
| 1777186106 | 21.11° C | 87% | 1010.4 hPa | 0 mm | - | - | - |
| 1777185205 | 21.11° C | 87% | 1010.5 hPa | 0 mm | - | - | - |
* Rain latest hour (hover to see other rain measurements)
** Current wind speed in m/s (hover to see current wind gust speed)